Airfield :
LOGIN :

Register | Disclaimer

   EN    FR    IT 

 










Legend :    VFR   Marginal VFR   IFR   Intensive IFR   Very Intensive IFR
Visi :
Ceiling :
>= 8 km
>= 3000ft
5 to 8 km
1000 to 3000 ft
1500m to 5 km
500 to 1000 ft
800 to 1500m
200 to 500 ft
< 800m
< 200 ft
Symbols :   Thunderstorms  Fog  Heavy snow  Heavy precipitations  Wind > 20 kt
SIGMETs :     Misc.  Thunderstorms  Icing  Turbulence  Mountain Waves  Volcanic Ashes






- Airport Elevation : -13 ft
- IATA code : LEY


EHLE - Lelystad

CURRENT METAR :
  • 260425Z AUTO 29015KT 9999 FEW018 SCT022 BKN028 04/02 Q1010

EXPIRED METARs :
  • 260355Z AUTO 29016KT 9999 FEW015CB BKN026 04/02 Q1010
  • 260325Z AUTO 30016KT 270V330 9000 -DZ FEW007 FEW015CB SCT016 BKN021 04/02 Q1010 REDZ
  • 260255Z AUTO 29014KT 260V320 9999 FEW025 SCT036 04/01 Q1009
  • 260225Z AUTO 29012KT 260V330 9999 NSC 04/02 Q1009
  • 260155Z AUTO 31011KT 280V340 9999 -DZ FEW015CB SCT018 BKN035 04/02 Q1008

TAF TAF EHLE
Valid from the 26 at 00:00 until the 27 at 06:00 UTC


252321Z 2600/2706 28016G26KT 9999 SCT025
TEMPO 2600/2606 7000 SHRA SCT018 SCT020CB
PROB40
TEMPO 2600/2603 32020G30KT
BECMG 2605/2608 29005KT
PROB30
TEMPO 2606/2615 29015KT -SHRA FEW020TCU
BECMG 2610/2613 26010KT
BECMG 2615/2618 21008KT
PROB30
TEMPO 2620/2623 SCT008 BKN012
BECMG 2621/2624 18014KT 7000 RASN BKN018
BECMG 2703/2706 22008KT 6000 -DZ SCT003 BKN005



MET'MAP, your aeronautical weather chart ! - Copyright ORBIFLY December 2007 - Disclaimer

ORBIFLY MET'MAP TEAM :

Programming & Development : Alexandra Zaïnal
Concept & original design : Baudouin d'Aumeries
Assistance for programming : Marc-Olivier Méhu
Technical & hardware support : Manuel Goepfert

Contact : metmap@orbifly.com




SOURCES & CREDITS :

   NOAA